createdAt,value
2023-03-27T00:00:18.791Z,0.30
2023-03-27T00:05:21.329Z,0.30
2023-03-27T00:10:23.938Z,0.30
2023-03-27T00:15:25.843Z,0.30
2023-03-27T00:20:27.598Z,0.30
2023-03-27T00:25:29.896Z,0.40
2023-03-27T00:30:31.701Z,0.30
2023-03-27T00:35:33.462Z,0.40
2023-03-27T00:40:35.278Z,0.30
2023-03-27T00:45:37.813Z,0.40
2023-03-27T00:50:42.777Z,0.50
2023-03-27T00:55:47.808Z,0.75
2023-03-27T01:00:52.958Z,0.70
2023-03-27T01:05:57.527Z,1.10
2023-03-27T01:11:10.690Z,1.40
2023-03-27T01:16:24.170Z,1.20
2023-03-27T01:21:59.004Z,1.23
2023-03-27T01:27:18.681Z,1.20
2023-03-27T01:32:31.079Z,2.10
2023-03-27T01:38:03.928Z,2.40
2023-03-27T01:43:21.866Z,2.42
2023-03-27T01:48:32.590Z,2.72
2023-03-27T01:53:39.845Z,2.53
2023-03-27T01:58:48.026Z,3.10
2023-03-27T02:03:57.145Z,2.97
2023-03-27T02:09:10.649Z,2.97
2023-03-27T02:14:23.230Z,2.60
2023-03-27T02:19:37.012Z,2.95
2023-03-27T02:24:40.156Z,2.55
2023-03-27T02:29:59.760Z,2.60
2023-03-27T02:35:12.617Z,2.75
2023-03-27T02:40:41.680Z,2.80
2023-03-27T02:46:26.964Z,2.58
2023-03-27T02:51:57.706Z,2.53
2023-03-27T02:57:05.272Z,2.20
2023-03-27T03:02:29.613Z,3.15
2023-03-27T03:07:34.741Z,2.10
2023-03-27T03:12:36.524Z,1.95
2023-03-27T03:17:38.352Z,2.03
2023-03-27T03:22:40.186Z,2.10
2023-03-27T03:27:42.066Z,1.70
2023-03-27T03:32:47.793Z,2.53
2023-03-27T03:37:51.474Z,2.10
2023-03-27T03:42:54.216Z,2.20
2023-03-27T03:47:59.931Z,2.38
2023-03-27T03:53:01.673Z,2.70
2023-03-27T03:58:04.326Z,2.60
2023-03-27T04:03:09.416Z,2.90
2023-03-27T04:08:12.968Z,2.53
2023-03-27T04:13:28.914Z,2.25
2023-03-27T04:18:39.295Z,2.20
2023-03-27T04:23:45.137Z,2.40
2023-03-27T04:28:51.690Z,3.00
2023-03-27T04:34:20.562Z,2.70
2023-03-27T04:39:46.482Z,2.65
2023-03-27T04:44:48.582Z,2.50
2023-03-27T04:49:51.180Z,2.72
2023-03-27T04:54:58.866Z,2.67
2023-03-27T05:00:13.938Z,2.80
2023-03-27T05:05:22.965Z,2.85
2023-03-27T05:15:32.190Z,2.35
2023-03-27T05:20:35.825Z,2.55
2023-03-27T05:25:45.332Z,3.45
2023-03-27T05:31:10.678Z,2.50
2023-03-27T05:36:23.517Z,2.10
2023-03-27T05:41:25.347Z,2.67
2023-03-27T05:46:27.235Z,1.98
2023-03-27T05:51:36.553Z,2.22
2023-03-27T05:56:38.656Z,1.92
2023-03-27T06:01:40.520Z,1.90
2023-03-27T06:06:42.810Z,1.50
2023-03-27T06:11:44.866Z,1.48
2023-03-27T06:16:46.704Z,1.33
2023-03-27T06:22:11.259Z,1.63
2023-03-27T06:27:14.361Z,1.05
2023-03-27T06:32:16.992Z,0.80
2023-03-27T06:37:25.092Z,0.82
2023-03-27T06:42:33.415Z,0.70
2023-03-27T06:48:16.115Z,0.95
2023-03-27T06:58:27.987Z,0.90
2023-03-27T07:03:30.565Z,0.50
2023-03-27T07:08:37.915Z,0.70
2023-03-27T07:13:41.265Z,0.63
2023-03-27T07:18:48.711Z,0.57
2023-03-27T07:23:50.762Z,0.63
2023-03-27T07:29:10.494Z,0.63
2023-03-27T07:34:13.159Z,0.70
2023-03-27T07:39:33.891Z,1.00
2023-03-27T07:44:36.528Z,0.75
2023-03-27T07:49:42.015Z,0.70
2023-03-27T07:54:48.634Z,0.93
2023-03-27T07:59:52.739Z,0.70
2023-03-27T08:05:14.970Z,0.70
2023-03-27T08:10:20.763Z,0.65
2023-03-27T08:15:35.593Z,0.60
2023-03-27T08:20:42.383Z,0.70
2023-03-27T08:25:50.275Z,0.70
2023-03-27T08:30:54.727Z,1.10
2023-03-27T08:41:42.423Z,1.13
2023-03-27T08:47:01.570Z,0.75
2023-03-27T08:52:16.836Z,0.82
2023-03-27T08:57:25.071Z,0.68
2023-03-27T09:02:48.342Z,0.70
2023-03-27T09:08:08.193Z,1.00
2023-03-27T09:13:18.025Z,0.90
2023-03-27T09:18:27.983Z,1.05
2023-03-27T09:23:39.359Z,1.02
2023-03-27T09:29:29.914Z,0.80
2023-03-27T09:34:43.065Z,0.82
2023-03-27T09:39:52.237Z,1.08
2023-03-27T09:45:03.404Z,0.60
2023-03-27T09:50:27.677Z,0.73
2023-03-27T09:56:05.486Z,1.10
2023-03-27T10:01:19.858Z,0.93
2023-03-27T10:06:42.514Z,0.60
2023-03-27T10:11:59.638Z,1.00
2023-03-27T10:17:05.189Z,0.80
2023-03-27T10:22:31.383Z,0.70
2023-03-27T10:27:36.050Z,0.80
2023-03-27T10:33:04.286Z,0.70
2023-03-27T10:38:27.691Z,1.40
2023-03-27T10:43:49.204Z,0.75
2023-03-27T10:48:57.502Z,0.70
2023-03-27T10:54:09.506Z,0.80
2023-03-27T10:59:47.086Z,0.70
2023-03-27T11:05:11.196Z,0.90
2023-03-27T11:10:19.427Z,1.00
2023-03-27T11:15:36.840Z,1.35
2023-03-27T11:20:50.796Z,2.03
2023-03-27T11:26:01.228Z,1.30
2023-03-27T11:31:13.466Z,1.00
2023-03-27T11:36:45.987Z,1.00
2023-03-27T11:42:00.876Z,1.30
2023-03-27T11:47:18.756Z,1.05
2023-03-27T11:52:32.138Z,1.10
2023-03-27T11:57:58.634Z,1.88
2023-03-27T12:03:43.567Z,1.20
2023-03-27T12:09:43.821Z,1.90
2023-03-27T12:15:50.337Z,1.42
2023-03-27T12:21:01.138Z,1.63
2023-03-27T12:26:18.139Z,1.70
2023-03-27T12:32:03.806Z,1.20
2023-03-27T12:37:12.110Z,0.70
2023-03-27T12:42:30.580Z,0.70
2023-03-27T12:48:04.717Z,0.80
2023-03-27T12:53:27.832Z,2.15
2023-03-27T12:58:43.787Z,1.05
2023-03-27T13:04:18.368Z,1.10
2023-03-27T13:09:30.115Z,1.00
2023-03-27T13:14:54.711Z,0.80
2023-03-27T13:20:24.605Z,1.77
2023-03-27T13:25:40.342Z,1.23
2023-03-27T13:30:50.404Z,1.00
2023-03-27T13:36:24.733Z,0.90
2023-03-27T13:41:44.382Z,1.65
2023-03-27T13:47:37.672Z,1.80
2023-03-27T13:53:06.359Z,1.20
2023-03-27T13:58:41.748Z,0.98
2023-03-27T14:04:02.646Z,2.80
2023-03-27T14:09:35.972Z,1.67
2023-03-27T14:14:57.836Z,0.70
2023-03-27T14:20:11.158Z,0.80
2023-03-27T14:25:20.928Z,0.60
2023-03-27T14:30:47.191Z,0.65
2023-03-27T14:36:05.593Z,0.70
2023-03-27T14:41:20.404Z,1.20
2023-03-27T14:46:27.710Z,1.00
2023-03-27T14:51:41.837Z,1.00
2023-03-27T14:56:51.051Z,0.90
2023-03-27T15:02:20.628Z,1.02
2023-03-27T15:07:28.626Z,0.80
2023-03-27T15:12:57.094Z,1.35
2023-03-27T15:18:00.608Z,1.02
2023-03-27T15:23:21.736Z,1.10
2023-03-27T15:28:38.081Z,1.17
2023-03-27T15:34:02.097Z,1.20
2023-03-27T15:39:06.731Z,1.08
2023-03-27T15:44:12.823Z,1.08
2023-03-27T15:49:37.148Z,1.20
2023-03-27T15:54:56.268Z,2.45
2023-03-27T16:00:14.644Z,1.00
2023-03-27T16:05:18.617Z,0.80
2023-03-27T16:10:32.579Z,2.00
2023-03-27T16:15:41.942Z,3.72
2023-03-27T16:20:44.854Z,1.30
2023-03-27T16:25:46.606Z,0.90
2023-03-27T16:30:48.883Z,1.30
2023-03-27T16:35:51.393Z,1.80
2023-03-27T16:40:53.226Z,1.90
2023-03-27T16:45:55.753Z,1.38
2023-03-27T16:50:57.641Z,1.35
2023-03-27T16:55:59.963Z,1.40
2023-03-27T17:01:02.063Z,1.40
2023-03-27T17:06:06.929Z,1.20
2023-03-27T17:11:11.916Z,1.23
2023-03-27T17:16:14.401Z,1.10
2023-03-27T17:21:16.465Z,1.27
2023-03-27T17:26:31.149Z,1.23
2023-03-27T17:31:34.107Z,0.80
2023-03-27T17:36:43.354Z,1.42
2023-03-27T17:41:50.755Z,1.20
2023-03-27T17:46:52.615Z,1.23
2023-03-27T17:51:54.455Z,1.58
2023-03-27T17:56:56.380Z,1.42
2023-03-27T18:01:58.941Z,3.00
2023-03-27T18:07:01.169Z,2.78
2023-03-27T18:12:03.041Z,5.90
2023-03-27T18:17:05.447Z,3.10
2023-03-27T18:22:07.203Z,3.15
2023-03-27T18:27:09.032Z,5.03
2023-03-27T18:32:11.008Z,3.58
2023-03-27T18:37:13.197Z,3.15
2023-03-27T18:42:15.195Z,3.95
2023-03-27T18:47:17.110Z,4.95
2023-03-27T18:52:18.918Z,4.03
2023-03-27T18:57:21.284Z,2.53
2023-03-27T19:02:23.963Z,2.10
2023-03-27T19:07:26.125Z,1.60
2023-03-27T19:12:27.880Z,1.75
2023-03-27T19:17:47.861Z,1.55
2023-03-27T19:23:00.298Z,1.48
2023-03-27T19:28:08.973Z,2.38
2023-03-27T19:33:11.589Z,1.65
2023-03-27T19:38:14.181Z,2.60
2023-03-27T19:43:18.053Z,1.98
2023-03-27T19:48:21.473Z,1.30
2023-03-27T19:53:23.439Z,0.95
2023-03-27T19:58:25.834Z,1.20
2023-03-27T20:03:29.415Z,1.10
2023-03-27T20:08:38.020Z,1.57
2023-03-27T20:13:53.110Z,1.63
2023-03-27T20:19:04.683Z,1.10
2023-03-27T20:24:09.924Z,1.30
2023-03-27T20:29:18.228Z,1.15
2023-03-27T20:34:22.528Z,1.40
2023-03-27T20:39:27.183Z,1.48
2023-03-27T20:44:35.172Z,1.20
2023-03-27T20:49:41.283Z,1.20
2023-03-27T20:54:43.776Z,1.20
2023-03-27T20:59:48.112Z,1.42
2023-03-27T21:04:50.042Z,1.00
2023-03-27T21:09:53.075Z,1.40
2023-03-27T21:14:54.878Z,1.30
2023-03-27T21:19:59.792Z,1.08
2023-03-27T21:25:01.925Z,0.88
2023-03-27T21:30:05.670Z,1.20
2023-03-27T21:35:07.872Z,1.10
2023-03-27T21:40:10.394Z,0.90
2023-03-27T21:45:12.312Z,0.88
2023-03-27T21:50:14.169Z,0.93
2023-03-27T21:55:16.343Z,1.30
2023-03-27T22:00:18.728Z,1.70
2023-03-27T22:05:20.849Z,1.60
2023-03-27T22:10:22.649Z,1.13
2023-03-27T22:15:24.465Z,1.35
2023-03-27T22:20:27.283Z,1.33
2023-03-27T22:25:29.049Z,1.42
2023-03-27T22:30:34.081Z,1.55
2023-03-27T22:35:39.876Z,1.45
2023-03-27T22:40:41.889Z,1.58
2023-03-27T22:45:49.258Z,2.00
2023-03-27T22:50:55.683Z,1.90
2023-03-27T22:55:58.529Z,2.10
2023-03-27T23:01:00.599Z,2.40
2023-03-27T23:06:02.546Z,1.73
2023-03-27T23:11:05.586Z,1.92
2023-03-27T23:16:09.028Z,1.50
2023-03-27T23:21:13.157Z,2.20
2023-03-27T23:26:15.470Z,1.67
2023-03-27T23:31:19.849Z,1.80
2023-03-27T23:36:23.606Z,2.40
2023-03-27T23:41:25.538Z,1.80
2023-03-27T23:46:27.317Z,2.03
2023-03-27T23:51:29.043Z,2.17
2023-03-27T23:56:30.860Z,2.90
